Portada
METAR-TAF:

METAR-TAF

Aeroports :

Aeroport d'Auckland

Auckland, Nova Zelanda

latitud: 37-01S, longitud: 174-48E, altitud: 7 m

Observació

L'informe es va fer fa 19 minuts, a les 19:00 UTC
Vent 11 kt del Oest/Sud-Oest
Temperatura 12°C
Humitat 71%
Pressió 1016 hPa
Visibilitat 10 km o més

METAR: NZAA 161900Z AUTO 25011KT 9999 NCD 12/07 Q1016 TEMPO FM2000Z 6000 SHRA

Hora: 07:19 (19:19 UTC)

Pronòstic

L'informe es va fer fa 2 hores i 18 minuts, a les 17:01 UTC
Pronòstic vàlid del 16 a les 18 UTC al 17 a les 18 UTC
Vent 15 kt del Oest/Sud-Oest
Visibilitat 10 km o més
Escasses núvols a una alçada de 2000 ft
Núvols disperses a una alçada de 2500 ft
xàfecs de pluja
Temporalment
l' 16 a les 18 UTC al 17 a les 12 UTC
Visibilitat: 6000 m
xàfecs de pluja

TAF: NZAA 161701Z 1618/1718 24015KT 9999 -SHRA FEW020 SCT025 TEMPO 1618/1712 6000 SHRA

Observacions i pronòstics meteorològics de més de 4000 aeroports (METAR i TAF).

Les estacions disponibles són els punts grocs i vermells al mapa.

Posi el ratolí al punt desitjat per veure el nom de l'estació.

Feu clic per veure les observacions i els pronòstics meteorològics.

Per canviar el mapa: feu clic els botons verds amb una creu de color negre per apropar; al botó verd amb un guió per allunyar la imatge; o en les fletxes verdes per a mapes adjacents.


METAR-TAF: